createdAt,value
2018-06-20T00:00:36.818Z,17.30
2018-06-20T00:03:05.325Z,17.30
2018-06-20T00:05:33.846Z,17.40
2018-06-20T00:08:02.354Z,17.40
2018-06-20T00:10:30.851Z,17.40
2018-06-20T00:12:59.394Z,17.40
2018-06-20T00:15:27.924Z,17.40
2018-06-20T00:17:56.396Z,17.30
2018-06-20T00:20:24.909Z,17.20
2018-06-20T00:22:53.418Z,17.10
2018-06-20T00:25:21.960Z,17.20
2018-06-20T00:27:50.503Z,17.20
2018-06-20T00:30:19.032Z,17.20
2018-06-20T00:32:47.567Z,17.10
2018-06-20T00:35:16.139Z,17.10
2018-06-20T00:37:44.623Z,17.10
2018-06-20T00:40:13.123Z,17.20
2018-06-20T00:42:41.774Z,17.10
2018-06-20T00:45:10.257Z,17.00
2018-06-20T00:47:38.827Z,17.00
2018-06-20T00:50:07.329Z,17.00
2018-06-20T00:52:35.877Z,17.10
2018-06-20T00:55:04.361Z,17.00
2018-06-20T00:57:32.865Z,16.90
2018-06-20T01:00:01.407Z,16.90
2018-06-20T01:02:29.888Z,16.90
2018-06-20T01:04:58.450Z,16.90
2018-06-20T01:07:26.989Z,16.80
2018-06-20T01:09:55.694Z,16.80
2018-06-20T01:12:24.226Z,16.80
2018-06-20T01:14:52.724Z,16.90
2018-06-20T01:17:21.233Z,16.90
2018-06-20T01:19:49.754Z,16.80
2018-06-20T01:22:18.262Z,16.70
2018-06-20T01:24:46.805Z,16.70
2018-06-20T01:27:15.327Z,16.70
2018-06-20T01:29:43.845Z,16.60
2018-06-20T01:32:12.345Z,16.60
2018-06-20T01:34:40.872Z,16.60
2018-06-20T01:37:09.406Z,16.60
2018-06-20T01:39:38.090Z,16.70
2018-06-20T01:42:06.885Z,16.70
2018-06-20T01:44:35.392Z,16.70
2018-06-20T01:47:03.888Z,16.60
2018-06-20T01:49:32.475Z,16.60
2018-06-20T01:52:00.974Z,16.60
2018-06-20T01:54:29.478Z,16.50
2018-06-20T01:56:58.031Z,16.40
2018-06-20T01:59:26.646Z,16.40
2018-06-20T02:01:55.167Z,16.40
2018-06-20T02:04:23.694Z,16.40
2018-06-20T02:06:52.253Z,16.30
2018-06-20T02:09:20.747Z,16.40
2018-06-20T02:11:49.258Z,16.30
2018-06-20T02:14:17.750Z,16.30
2018-06-20T02:16:46.268Z,16.30
2018-06-20T02:19:14.810Z,16.30
2018-06-20T02:21:43.388Z,16.30
2018-06-20T02:24:11.895Z,16.30
2018-06-20T02:26:40.439Z,16.30
2018-06-20T02:29:09.068Z,16.30
2018-06-20T02:31:37.585Z,16.30
2018-06-20T02:34:06.114Z,16.30
2018-06-20T02:36:34.654Z,16.40
2018-06-20T02:39:06.129Z,16.40
2018-06-20T02:41:34.994Z,16.40
2018-06-20T02:44:03.593Z,16.40
2018-06-20T02:46:32.393Z,16.40
2018-06-20T02:49:00.967Z,16.40
2018-06-20T02:51:29.458Z,16.50
2018-06-20T02:53:57.987Z,16.60
2018-06-20T02:56:26.481Z,16.70
2018-06-20T02:58:54.961Z,16.80
2018-06-20T03:01:23.522Z,16.80
2018-06-20T03:03:52.034Z,16.80
2018-06-20T03:06:20.531Z,16.80
2018-06-20T03:08:54.566Z,16.70
2018-06-20T03:11:23.070Z,16.60
2018-06-20T03:13:51.614Z,16.50
2018-06-20T03:16:20.138Z,16.50
2018-06-20T03:18:48.658Z,16.40
2018-06-20T03:21:17.169Z,16.30
2018-06-20T03:23:45.666Z,16.30
2018-06-20T03:26:14.222Z,16.20
2018-06-20T03:28:43.041Z,16.10
2018-06-20T03:31:11.588Z,16.10
2018-06-20T03:33:40.130Z,16.10
2018-06-20T03:36:08.693Z,16.00
2018-06-20T03:38:37.218Z,16.00
2018-06-20T03:41:05.753Z,16.00
2018-06-20T03:43:34.317Z,16.00
2018-06-20T03:46:02.967Z,16.10
2018-06-20T03:48:31.607Z,16.10
2018-06-20T03:51:00.130Z,16.20
2018-06-20T03:53:28.622Z,16.10
2018-06-20T03:55:57.133Z,16.10
2018-06-20T03:58:25.630Z,16.10
2018-06-20T04:00:54.194Z,16.10
2018-06-20T04:03:22.730Z,16.20
2018-06-20T04:05:51.270Z,16.20
2018-06-20T04:08:19.777Z,16.30
2018-06-20T04:10:48.289Z,16.40
2018-06-20T04:13:16.827Z,16.40
2018-06-20T04:15:45.365Z,16.40
2018-06-20T04:18:14.012Z,16.40
2018-06-20T04:20:42.530Z,16.40
2018-06-20T04:23:11.030Z,16.50
2018-06-20T04:25:39.555Z,16.60
2018-06-20T04:28:08.114Z,16.70
2018-06-20T04:30:36.655Z,17.30
2018-06-20T04:33:05.183Z,18.10
2018-06-20T04:35:33.725Z,18.90
2018-06-20T04:38:02.257Z,19.70
2018-06-20T04:40:30.822Z,20.50
2018-06-20T04:42:59.338Z,21.10
2018-06-20T04:45:27.846Z,21.00
2018-06-20T04:47:56.350Z,20.50
2018-06-20T04:50:24.909Z,19.80
2018-06-20T04:52:53.479Z,19.20
2018-06-20T04:55:22.047Z,18.90
2018-06-20T04:57:50.583Z,18.70
2018-06-20T05:00:19.132Z,18.60
2018-06-20T05:02:47.650Z,18.50
2018-06-20T05:05:16.175Z,18.50
2018-06-20T05:07:44.710Z,18.60
2018-06-20T05:10:13.286Z,18.50
2018-06-20T05:12:41.788Z,18.70
2018-06-20T05:15:10.322Z,18.80
2018-06-20T05:17:38.838Z,18.90
2018-06-20T05:20:07.423Z,19.10
2018-06-20T05:22:35.964Z,19.20
2018-06-20T05:25:04.583Z,19.40
2018-06-20T05:27:33.988Z,19.70
2018-06-20T05:30:03.127Z,20.00
2018-06-20T05:32:31.670Z,20.50
2018-06-20T05:35:00.238Z,21.20
2018-06-20T05:37:29.611Z,22.00
2018-06-20T05:39:58.096Z,22.90
2018-06-20T05:42:26.624Z,24.20
2018-06-20T05:44:55.093Z,25.40
2018-06-20T05:47:23.606Z,26.10
2018-06-20T05:49:52.230Z,26.90
2018-06-20T05:52:20.731Z,27.40
2018-06-20T05:54:49.265Z,26.90
2018-06-20T05:57:17.786Z,26.30
2018-06-20T05:59:46.469Z,26.00
2018-06-20T06:02:15.194Z,26.30
2018-06-20T06:04:43.754Z,26.90
2018-06-20T06:07:12.957Z,27.40
2018-06-20T06:09:41.469Z,27.50
2018-06-20T06:12:09.981Z,27.60
2018-06-20T06:14:38.468Z,27.60
2018-06-20T06:17:07.062Z,27.20
2018-06-20T06:19:35.670Z,27.10
2018-06-20T06:22:04.193Z,27.50
2018-06-20T06:24:33.863Z,27.50
2018-06-20T06:29:31.214Z,27.20
2018-06-20T06:31:59.744Z,27.00
2018-06-20T06:34:28.275Z,27.10
2018-06-20T06:36:56.775Z,27.20
2018-06-20T06:39:25.650Z,27.10
2018-06-20T06:41:54.198Z,27.40
2018-06-20T06:44:22.711Z,27.50
2018-06-20T06:46:51.222Z,27.80
2018-06-20T06:49:19.808Z,27.80
2018-06-20T06:51:48.290Z,27.90
2018-06-20T06:54:16.807Z,27.90
2018-06-20T06:56:45.367Z,28.30
2018-06-20T06:59:13.869Z,28.60
2018-06-20T07:01:42.387Z,29.20
2018-06-20T07:04:10.933Z,29.60
2018-06-20T07:06:39.462Z,30.20
2018-06-20T07:09:08.718Z,30.80
2018-06-20T07:11:37.257Z,31.10
2018-06-20T07:14:05.754Z,31.30
2018-06-20T07:16:34.304Z,31.40
2018-06-20T07:19:02.823Z,31.50
2018-06-20T07:21:31.350Z,32.60
2018-06-20T07:24:00.019Z,33.00
2018-06-20T07:26:28.534Z,33.40
2018-06-20T07:28:57.098Z,33.60
2018-06-20T07:31:25.634Z,33.90
2018-06-20T07:33:54.157Z,34.10
2018-06-20T07:36:22.745Z,34.00
2018-06-20T07:38:51.235Z,34.10
2018-06-20T07:41:19.737Z,34.10
2018-06-20T07:43:48.689Z,34.00
2018-06-20T07:46:17.245Z,33.90
2018-06-20T07:48:45.818Z,34.20
2018-06-20T07:51:14.346Z,34.10
2018-06-20T07:53:42.849Z,33.80
2018-06-20T07:56:11.354Z,33.90
2018-06-20T07:58:44.990Z,33.60
2018-06-20T08:03:31.313Z,32.80
2018-06-20T08:06:05.090Z,32.40
2018-06-20T08:08:38.725Z,32.00
2018-06-20T08:11:12.369Z,31.80
2018-06-20T08:13:46.067Z,31.50
2018-06-20T08:16:19.854Z,31.30
2018-06-20T08:18:53.517Z,31.40
2018-06-20T08:21:22.039Z,31.20
2018-06-20T08:23:50.550Z,31.20
2018-06-20T08:26:19.062Z,31.10
2018-06-20T08:28:47.866Z,30.70
2018-06-20T08:31:16.375Z,30.60
2018-06-20T08:33:44.887Z,30.50
2018-06-20T08:36:13.410Z,30.30
2018-06-20T08:38:41.915Z,30.30
2018-06-20T08:41:10.453Z,30.40
2018-06-20T08:43:38.919Z,30.40
2018-06-20T08:46:07.411Z,30.40
2018-06-20T08:48:35.960Z,30.30
2018-06-20T08:51:05.487Z,30.30
2018-06-20T08:53:34.017Z,30.10
2018-06-20T08:56:02.594Z,30.20
2018-06-20T08:58:31.120Z,29.90
2018-06-20T09:01:02.339Z,29.40
2018-06-20T09:03:30.910Z,28.90
2018-06-20T09:06:04.795Z,28.90
2018-06-20T09:08:38.474Z,29.40
2018-06-20T09:13:45.606Z,30.40
2018-06-20T09:16:19.331Z,30.50
2018-06-20T09:18:53.074Z,30.60
2018-06-20T09:21:21.667Z,30.70
2018-06-20T09:23:50.173Z,30.70
2018-06-20T09:26:18.698Z,30.90
2018-06-20T09:28:47.250Z,30.90
2018-06-20T09:31:15.837Z,31.00
2018-06-20T09:33:44.408Z,31.00
2018-06-20T09:36:12.959Z,31.10
2018-06-20T09:38:41.606Z,30.80
2018-06-20T09:41:10.067Z,30.60
2018-06-20T09:43:39.148Z,30.70
2018-06-20T09:46:07.716Z,30.80
2018-06-20T09:48:36.316Z,30.40
2018-06-20T09:51:05.792Z,30.30
2018-06-20T09:53:34.286Z,30.20
2018-06-20T09:56:02.809Z,30.30
2018-06-20T09:58:31.349Z,30.40
2018-06-20T10:01:07.072Z,30.30
2018-06-20T10:03:40.849Z,30.60
2018-06-20T10:06:14.726Z,30.70
2018-06-20T10:08:48.437Z,30.70
2018-06-20T10:11:22.064Z,30.90
2018-06-20T10:13:53.159Z,30.90
2018-06-20T10:16:21.710Z,31.10
2018-06-20T10:18:50.217Z,31.10
2018-06-20T10:21:18.885Z,31.00
2018-06-20T10:23:47.286Z,30.90
2018-06-20T10:26:15.790Z,31.00
2018-06-20T10:28:44.336Z,31.00
2018-06-20T10:31:12.846Z,31.10
2018-06-20T10:33:41.352Z,31.40
2018-06-20T10:36:10.547Z,31.50
2018-06-20T10:38:39.665Z,31.40
2018-06-20T10:41:08.167Z,31.60
2018-06-20T10:43:36.683Z,31.80
2018-06-20T10:46:10.405Z,31.70
2018-06-20T10:48:38.892Z,31.70
2018-06-20T10:51:07.406Z,31.70
2018-06-20T10:53:35.974Z,31.70
2018-06-20T10:56:04.740Z,31.70
2018-06-20T10:58:38.489Z,31.70
2018-06-20T11:01:12.314Z,31.80
2018-06-20T11:06:19.468Z,31.70
2018-06-20T11:08:53.262Z,31.60
2018-06-20T11:11:26.838Z,31.70
2018-06-20T11:13:55.424Z,31.60
2018-06-20T11:16:23.929Z,31.80
2018-06-20T11:18:54.345Z,31.90
2018-06-20T11:21:22.872Z,32.00
2018-06-20T11:23:51.373Z,32.10
2018-06-20T11:28:48.234Z,32.20
2018-06-20T11:31:17.730Z,32.20
2018-06-20T11:33:46.278Z,32.30
2018-06-20T11:36:14.795Z,32.40
2018-06-20T11:38:43.296Z,32.30
2018-06-20T11:41:11.832Z,32.20
2018-06-20T11:43:40.346Z,32.20
2018-06-20T11:46:14.194Z,32.20
2018-06-20T11:48:44.242Z,32.30
2018-06-20T11:51:12.752Z,32.40
2018-06-20T11:53:41.283Z,32.60
2018-06-20T11:56:09.764Z,32.70
2018-06-20T11:58:44.401Z,32.70
2018-06-20T12:01:18.454Z,32.80
2018-06-20T12:03:53.511Z,32.80
2018-06-20T12:06:27.423Z,32.90
2018-06-20T12:09:01.158Z,33.00
2018-06-20T12:11:34.868Z,32.90
2018-06-20T12:14:09.355Z,32.70
2018-06-20T12:16:38.552Z,32.50
2018-06-20T12:19:12.436Z,32.40
2018-06-20T12:21:46.346Z,32.40
2018-06-20T12:24:20.167Z,32.20
2018-06-20T12:26:54.178Z,32.20
2018-06-20T12:29:27.949Z,32.30
2018-06-20T12:32:01.599Z,32.60
2018-06-20T12:34:35.394Z,32.60
2018-06-20T12:37:09.289Z,32.50
2018-06-20T12:39:37.048Z,32.30
2018-06-20T12:42:10.890Z,32.20
2018-06-20T12:44:44.658Z,32.30
2018-06-20T12:47:17.946Z,32.20
2018-06-20T12:49:50.139Z,32.30
2018-06-20T12:52:18.696Z,32.30
2018-06-20T12:54:47.249Z,32.20
2018-06-20T12:57:15.792Z,32.30
2018-06-20T12:59:44.897Z,32.30
2018-06-20T13:02:13.450Z,32.30
2018-06-20T13:04:41.956Z,32.40
2018-06-20T13:07:10.598Z,32.40
2018-06-20T13:09:39.122Z,32.30
2018-06-20T13:14:35.817Z,32.20
2018-06-20T13:17:04.361Z,32.20
2018-06-20T13:19:32.846Z,32.20
2018-06-20T13:22:01.405Z,32.40
2018-06-20T13:24:29.914Z,32.60
2018-06-20T13:26:58.427Z,32.40
2018-06-20T13:29:29.150Z,32.10
2018-06-20T13:32:03.775Z,32.00
2018-06-20T13:34:37.762Z,31.90
2018-06-20T13:37:11.615Z,32.10
2018-06-20T13:39:45.476Z,32.20
2018-06-20T13:42:19.159Z,32.20
2018-06-20T13:44:47.829Z,32.10
2018-06-20T13:47:23.209Z,32.20
2018-06-20T13:49:56.120Z,32.20
2018-06-20T13:52:30.097Z,32.00
2018-06-20T13:54:59.432Z,32.10
2018-06-20T13:57:28.396Z,32.10
2018-06-20T13:59:58.081Z,32.00
2018-06-20T14:02:27.097Z,32.10
2018-06-20T14:04:56.107Z,32.20
2018-06-20T14:07:24.872Z,32.20
2018-06-20T14:09:53.783Z,32.20
2018-06-20T14:12:22.621Z,32.20
2018-06-20T14:14:52.093Z,32.30
2018-06-20T14:17:20.973Z,32.40
2018-06-20T14:19:55.044Z,32.40
2018-06-20T14:22:26.261Z,32.30
2018-06-20T14:24:54.839Z,32.00
2018-06-20T14:27:25.102Z,32.10
2018-06-20T14:29:53.835Z,32.10
2018-06-20T14:32:27.554Z,32.10
2018-06-20T14:35:01.296Z,31.90
2018-06-20T14:37:35.042Z,31.60
2018-06-20T14:40:08.733Z,31.80
2018-06-20T14:42:42.350Z,31.90
2018-06-20T14:45:16.129Z,32.10
2018-06-20T14:50:12.924Z,32.10
2018-06-20T14:52:41.959Z,32.20
2018-06-20T14:55:10.710Z,32.30
2018-06-20T14:57:39.237Z,32.40
2018-06-20T15:00:09.470Z,32.40
2018-06-20T15:02:37.942Z,32.30
2018-06-20T15:05:06.683Z,32.40
2018-06-20T15:07:35.174Z,32.50
2018-06-20T15:10:08.324Z,32.50
2018-06-20T15:12:36.836Z,32.40
2018-06-20T15:15:05.409Z,32.30
2018-06-20T15:17:33.909Z,32.40
2018-06-20T15:20:02.443Z,32.30
2018-06-20T15:22:36.158Z,32.30
2018-06-20T15:25:04.654Z,32.20
2018-06-20T15:27:38.296Z,32.00
2018-06-20T15:30:11.994Z,31.70
2018-06-20T15:32:45.881Z,31.50
2018-06-20T15:35:19.805Z,31.20
2018-06-20T15:37:54.690Z,31.10
2018-06-20T15:40:24.712Z,31.20
2018-06-20T15:42:53.337Z,31.40
2018-06-20T15:45:21.848Z,31.50
2018-06-20T15:47:50.389Z,31.60
2018-06-20T15:50:18.894Z,31.70
2018-06-20T15:52:47.376Z,31.70
2018-06-20T15:55:15.865Z,31.70
2018-06-20T15:57:44.508Z,31.70
2018-06-20T16:00:13.008Z,31.80
2018-06-20T16:02:41.503Z,31.70
2018-06-20T16:05:10.011Z,31.50
2018-06-20T16:10:09.831Z,31.60
2018-06-20T16:12:38.348Z,31.70
2018-06-20T16:15:06.829Z,31.70
2018-06-20T16:17:35.308Z,31.60
2018-06-20T16:22:10.827Z,31.50
2018-06-20T16:24:44.513Z,31.60
2018-06-20T16:27:18.251Z,31.70
2018-06-20T16:29:51.882Z,31.60
2018-06-20T16:32:20.394Z,31.50
2018-06-20T16:34:48.925Z,31.50
2018-06-20T16:37:17.470Z,31.50
2018-06-20T16:39:46.182Z,31.50
2018-06-20T16:42:15.243Z,31.40
2018-06-20T16:44:43.789Z,31.40
2018-06-20T16:47:12.293Z,31.40
2018-06-20T16:50:43.863Z,31.30
2018-06-20T16:53:12.343Z,31.30
2018-06-20T16:55:40.912Z,31.20
2018-06-20T16:58:18.543Z,31.10
2018-06-20T17:01:04.671Z,31.00
2018-06-20T17:03:33.248Z,31.00
2018-06-20T17:06:01.802Z,31.00
2018-06-20T17:08:30.493Z,31.00
2018-06-20T17:10:59.103Z,31.10
2018-06-20T17:13:32.964Z,31.10
2018-06-20T17:18:13.169Z,31.10
2018-06-20T17:20:47.451Z,31.00
2018-06-20T17:23:21.370Z,30.90
2018-06-20T17:25:49.873Z,30.90
2018-06-20T17:28:18.362Z,30.80
2018-06-20T17:30:47.537Z,30.80
2018-06-20T17:33:16.730Z,30.60
2018-06-20T17:35:45.214Z,30.60
2018-06-20T17:38:13.755Z,30.50
2018-06-20T17:40:42.233Z,30.40
2018-06-20T17:43:10.727Z,30.30
2018-06-20T17:45:39.239Z,30.20
2018-06-20T17:48:07.898Z,30.10
2018-06-20T17:50:36.573Z,29.90
2018-06-20T17:53:06.880Z,29.80
2018-06-20T17:55:35.572Z,29.80
2018-06-20T17:58:05.101Z,29.70
2018-06-20T18:00:37.909Z,29.60
2018-06-20T18:03:07.185Z,29.50
2018-06-20T18:05:40.887Z,29.50
2018-06-20T18:08:15.054Z,29.40
2018-06-20T18:10:49.852Z,29.20
2018-06-20T18:13:18.421Z,29.20
2018-06-20T18:15:52.144Z,29.10
2018-06-20T18:18:20.782Z,29.00
2018-06-20T18:20:49.360Z,28.90
2018-06-20T18:23:17.866Z,28.80
2018-06-20T18:25:46.417Z,28.80
2018-06-20T18:28:16.483Z,28.70
2018-06-20T18:30:45.918Z,28.50
2018-06-20T18:33:14.425Z,28.40
2018-06-20T18:35:43.096Z,28.40
2018-06-20T18:38:13.145Z,28.30
2018-06-20T18:40:41.651Z,28.20
2018-06-20T18:43:10.303Z,28.20
2018-06-20T18:45:38.877Z,28.10
2018-06-20T18:48:12.495Z,28.10
2018-06-20T18:50:41.082Z,28.00
2018-06-20T18:53:09.683Z,27.80
2018-06-20T18:55:38.230Z,27.60
2018-06-20T18:58:12.225Z,27.30
2018-06-20T19:00:45.903Z,27.10
2018-06-20T19:03:19.698Z,26.90
2018-06-20T19:05:53.763Z,26.60
2018-06-20T19:08:27.583Z,26.40
2018-06-20T19:10:56.081Z,26.30
2018-06-20T19:13:24.694Z,26.20
2018-06-20T19:15:53.152Z,26.20
2018-06-20T19:18:22.646Z,26.20
2018-06-20T19:20:51.162Z,26.10
2018-06-20T19:23:19.709Z,25.80
2018-06-20T19:25:48.280Z,25.60
2018-06-20T19:28:17.571Z,25.40
2018-06-20T19:30:47.680Z,25.30
2018-06-20T19:33:16.235Z,25.10
2018-06-20T19:35:44.715Z,24.90
2018-06-20T19:38:20.330Z,24.70
2018-06-20T19:40:48.854Z,24.70
2018-06-20T19:43:18.081Z,24.60
2018-06-20T19:45:47.808Z,24.50
2018-06-20T19:48:16.323Z,24.40
2018-06-20T19:50:44.836Z,24.40
2018-06-20T19:53:13.354Z,24.40
2018-06-20T19:55:41.974Z,24.40
2018-06-20T19:58:10.452Z,24.20
2018-06-20T20:00:39.876Z,24.10
2018-06-20T20:03:08.634Z,24.00
2018-06-20T20:05:37.220Z,23.90
2018-06-20T20:08:05.741Z,23.70
2018-06-20T20:10:34.239Z,23.60
2018-06-20T20:13:02.724Z,23.50
2018-06-20T20:15:31.255Z,23.40
2018-06-20T20:17:59.800Z,23.30
2018-06-20T20:20:28.365Z,23.30
2018-06-20T20:22:56.850Z,23.20
2018-06-20T20:25:25.344Z,23.10
2018-06-20T20:27:53.847Z,23.00
2018-06-20T20:30:22.366Z,22.90
2018-06-20T20:32:50.903Z,22.80
2018-06-20T20:35:22.366Z,22.70
2018-06-20T20:37:50.871Z,22.70
2018-06-20T20:40:19.372Z,22.60
2018-06-20T20:42:47.910Z,22.60
2018-06-20T20:45:16.435Z,22.50
2018-06-20T20:47:44.964Z,22.50
2018-06-20T20:50:13.487Z,22.50
2018-06-20T20:52:42.045Z,22.50
2018-06-20T20:55:10.555Z,22.40
2018-06-20T20:57:39.096Z,22.30
2018-06-20T21:00:08.215Z,22.30
2018-06-20T21:02:36.756Z,22.30
2018-06-20T21:05:05.566Z,22.30
2018-06-20T21:07:34.137Z,22.10
2018-06-20T21:10:02.615Z,22.00
2018-06-20T21:12:31.111Z,21.80
2018-06-20T21:14:59.617Z,21.60
2018-06-20T21:17:28.115Z,21.50
2018-06-20T21:19:56.786Z,21.40
2018-06-20T21:22:25.266Z,21.30
2018-06-20T21:24:53.728Z,21.30
2018-06-20T21:27:22.267Z,21.10
2018-06-20T21:29:50.782Z,21.10
2018-06-20T21:32:20.321Z,21.00
2018-06-20T21:34:48.850Z,21.00
2018-06-20T21:37:17.354Z,20.90
2018-06-20T21:39:45.935Z,21.00
2018-06-20T21:42:14.474Z,21.00
2018-06-20T21:44:46.160Z,20.90
2018-06-20T21:47:14.684Z,21.00
2018-06-20T21:49:43.161Z,20.90
2018-06-20T21:52:11.654Z,20.90
2018-06-20T21:54:40.215Z,20.90
2018-06-20T21:57:08.741Z,20.90
2018-06-20T21:59:37.339Z,20.90
2018-06-20T22:02:05.871Z,20.90
2018-06-20T22:04:34.398Z,21.00
2018-06-20T22:07:02.923Z,21.00
2018-06-20T22:09:31.521Z,20.80
2018-06-20T22:11:59.967Z,20.70
2018-06-20T22:14:28.516Z,20.70
2018-06-20T22:16:57.023Z,20.60
2018-06-20T22:19:25.584Z,20.50
2018-06-20T22:21:54.105Z,20.40
2018-06-20T22:24:22.617Z,20.40
2018-06-20T22:26:51.118Z,20.30
2018-06-20T22:29:19.642Z,20.30
2018-06-20T22:31:48.438Z,20.30
2018-06-20T22:34:16.962Z,20.20
2018-06-20T22:36:45.509Z,20.10
2018-06-20T22:39:14.031Z,20.00
2018-06-20T22:41:42.587Z,20.00
2018-06-20T22:44:11.099Z,20.00
2018-06-20T22:46:39.657Z,20.00
2018-06-20T22:49:08.750Z,20.10
2018-06-20T22:51:37.521Z,20.10
2018-06-20T22:54:06.052Z,20.00
2018-06-20T22:56:34.601Z,20.00
2018-06-20T22:59:06.065Z,20.00
2018-06-20T23:01:34.558Z,20.00
2018-06-20T23:04:03.089Z,20.00
2018-06-20T23:06:31.610Z,20.00
2018-06-20T23:09:00.175Z,19.90
2018-06-20T23:11:31.407Z,19.90
2018-06-20T23:13:59.914Z,19.90
2018-06-20T23:16:28.411Z,19.80
2018-06-20T23:18:56.941Z,19.70
2018-06-20T23:21:25.444Z,19.70
2018-06-20T23:23:53.935Z,19.60
2018-06-20T23:26:22.469Z,19.60
2018-06-20T23:28:51.214Z,19.60
2018-06-20T23:31:19.714Z,19.60
2018-06-20T23:33:48.239Z,19.60
2018-06-20T23:36:16.748Z,19.70
2018-06-20T23:38:45.299Z,19.60
2018-06-20T23:41:14.086Z,19.60
2018-06-20T23:43:43.111Z,19.50
2018-06-20T23:46:11.800Z,19.50
2018-06-20T23:48:40.411Z,19.50
2018-06-20T23:51:09.155Z,19.50
2018-06-20T23:53:37.786Z,19.40
2018-06-20T23:56:06.310Z,19.50
2018-06-20T23:58:34.838Z,19.50
